LDY weather

City of Derry Airport
Derry, Northern Ireland, United Kingdom

Public forecast

Using degrees Celsius for public forecast. Weather courtesy of forecast.io.

METAR (pilot weather report)

Retrieved 2019/04/22 19:50 UTC (2 hours ago):

EGAE 221950Z 13013KT CAVOK 17/08 Q1000

TAF (pilot weather forecast)

Closest forecast is Belfast International Airport, 40.0 nm (74.1 km) SE. Retrieved 2019/04/22 18:06 UTC (3 hours ago):

TAF TAF EGAA 221659Z 2218/2318 12011KT CAVOK